Time;durP1;ratioP1;P1;durP2;ratioP2;P2;SDS_P1;SDS_P2;PMS_P1;PMS_P2;Temp;Humidity;BMP_temperature;BMP_pressure;BME280_temperature;BME280_humidity;BME280_pressure;Samples;Min_cycle;Max_cycle;Signal;HPM_P1;HPM_P2
2023/07/25 19:25:43;;;;;;;7.80;3.93;;;;;;;23.85;55.91;99858.50;5072273;27;20556;-67
2023/07/25 19:28:08;;;;;;;4.13;3.30;;;;;;;23.83;55.84;99869.25;5075679;28;20027;-67
2023/07/25 19:30:33;;;;;;;5.68;3.63;;;;;;;23.68;55.85;99876.88;5076529;28;20147;-68
2023/07/25 19:32:59;;;;;;;5.93;2.70;;;;;;;23.65;56.15;99881.63;5069124;28;20024;-69
2023/07/25 19:35:24;;;;;;;9.02;3.78;;;;;;;23.69;56.60;99883.00;5072225;28;20032;-68
2023/07/25 19:37:49;;;;;;;6.50;2.90;;;;;;;23.69;56.14;99890.94;5076101;28;20109;-71
2023/07/25 19:40:15;;;;;;;2.90;2.60;;;;;;;23.70;56.12;99903.22;5072129;28;20044;-71
2023/07/25 19:42:40;;;;;;;3.72;2.80;;;;;;;23.71;55.90;99896.91;5072274;28;20031;-71
2023/07/25 19:45:06;;;;;;;6.72;3.33;;;;;;;23.86;55.65;99890.16;5056811;28;20020;-68
2023/07/25 19:47:32;;;;;;;10.82;3.72;;;;;;;23.81;55.32;99895.06;5058567;28;20036;-70
2023/07/25 19:49:57;;;;;;;9.90;4.05;;;;;;;23.79;55.75;99899.69;5076895;28;20035;-69
2023/07/25 19:52:22;;;;;;;7.38;3.55;;;;;;;23.78;55.94;99901.50;5073716;28;20467;-67
2023/07/25 19:54:49;;;;;;;13.32;4.00;;;;;;;23.85;55.55;99909.69;5070561;28;20035;-70
2023/07/25 19:57:14;;;;;;;4.38;3.70;;;;;;;23.83;55.55;99926.75;5074505;28;20047;-69
2023/07/25 19:59:40;;;;;;;11.70;4.38;;;;;;;23.74;55.78;99923.97;5074549;28;20092;-69
2023/07/25 20:02:07;;;;;;;4.65;3.97;;;;;;;23.79;55.51;99928.84;5072089;28;20193;-69
2023/07/25 20:04:32;;;;;;;5.15;3.80;;;;;;;23.73;55.87;99926.78;5072179;28;20021;-69
2023/07/25 20:06:57;;;;;;;6.10;3.97;;;;;;;23.71;55.82;99929.59;5077499;28;20036;-71
2023/07/25 20:09:23;;;;;;;7.00;3.58;;;;;;;23.69;56.13;99936.00;5076927;28;20024;-69
2023/07/25 20:11:48;;;;;;;5.95;4.00;;;;;;;23.70;55.81;99937.66;5075326;28;20739;-69
2023/07/25 20:14:14;;;;;;;5.30;3.70;;;;;;;23.68;55.76;99937.81;5079859;28;20060;-68
2023/07/25 20:16:39;;;;;;;4.47;3.70;;;;;;;23.67;55.71;99935.31;5075325;28;20032;-68
2023/07/25 20:19:04;;;;;;;4.78;3.50;;;;;;;23.66;55.92;99938.97;5075336;28;20430;-69
2023/07/25 20:21:30;;;;;;;5.40;3.20;;;;;;;23.67;55.35;99944.09;5073124;28;20055;-70
2023/07/25 20:23:55;;;;;;;3.45;3.00;;;;;;;23.69;54.78;99951.91;5073841;28;20541;-69
2023/07/25 20:26:20;;;;;;;5.10;3.20;;;;;;;23.72;54.81;99960.41;5070397;28;20028;-69
2023/07/25 20:28:46;;;;;;;3.50;3.10;;;;;;;23.69;54.80;99965.16;5075024;28;20508;-70
2023/07/25 20:31:12;;;;;;;4.18;3.22;;;;;;;23.67;54.99;99960.00;5072842;28;20059;-67
2023/07/25 20:33:39;;;;;;;5.63;3.40;;;;;;;23.71;54.54;99966.69;5070233;28;20739;-68
2023/07/25 20:36:05;;;;;;;5.38;3.35;;;;;;;23.71;54.58;99977.28;5068739;28;20032;-68
2023/07/25 20:38:32;;;;;;;4.13;3.53;;;;;;;23.72;54.50;99973.66;5044983;28;20026;-67
2023/07/25 20:40:57;;;;;;;6.32;4.00;;;;;;;23.69;54.40;99981.88;5059479;28;20055;-67
2023/07/25 20:43:23;;;;;;;3.53;3.22;;;;;;;23.70;54.33;99978.25;5056862;28;20826;-68
2023/07/25 20:45:48;;;;;;;4.00;3.58;;;;;;;23.68;54.63;99982.03;5057956;28;20040;-67
2023/07/25 20:48:14;;;;;;;4.55;3.53;;;;;;;23.64;54.83;99984.13;5057369;28;20107;-68
2023/07/25 20:50:39;;;;;;;5.13;3.88;;;;;;;23.59;54.49;99993.47;5061200;28;20060;-68
2023/07/25 20:53:05;;;;;;;4.22;3.83;;;;;;;23.60;55.00;99995.13;5056526;28;20032;-68
2023/07/25 20:55:30;;;;;;;6.40;3.70;;;;;;;23.64;54.65;99999.22;5058758;28;20036;-68
2023/07/25 20:57:55;;;;;;;4.05;3.70;;;;;;;23.64;54.74;99991.25;5060319;28;20085;-67
2023/07/25 21:00:21;;;;;;;4.07;3.78;;;;;;;23.65;54.43;99995.56;5059607;28;20059;-68
2023/07/25 21:02:49;;;;;;;4.18;3.58;;;;;;;23.67;54.58;100001.56;5060645;28;20027;-67
2023/07/25 21:05:15;;;;;;;4.50;3.92;;;;;;;23.64;54.50;100000.03;5064622;28;20027;-68
2023/07/25 21:07:40;;;;;;;4.60;4.15;;;;;;;23.62;54.23;99994.06;5061735;28;20036;-68
2023/07/25 21:10:06;;;;;;;3.90;3.60;;;;;;;23.61;54.19;100002.13;5059878;28;20654;-69
2023/07/25 21:12:32;;;;;;;5.13;4.13;;;;;;;23.60;54.70;100011.03;5059194;28;20054;-69
2023/07/25 21:14:57;;;;;;;4.30;3.80;;;;;;;23.62;54.24;100006.44;5060549;28;20134;-68
2023/07/25 21:17:22;;;;;;;4.70;3.95;;;;;;;23.54;54.33;100013.31;5061570;28;20028;-67
2023/07/25 21:19:48;;;;;;;5.50;3.95;;;;;;;23.52;54.67;100011.78;5059785;28;20029;-67
2023/07/25 21:22:13;;;;;;;6.28;3.95;;;;;;;23.46;54.39;100015.81;5059871;28;20093;-68
2023/07/25 21:24:39;;;;;;;5.18;3.95;;;;;;;23.52;54.38;100025.84;5037221;28;20045;-68
2023/07/25 21:27:05;;;;;;;6.03;4.07;;;;;;;23.52;54.27;100020.56;5057985;28;20106;-68
2023/07/25 21:29:30;;;;;;;5.70;3.88;;;;;;;23.57;54.05;100027.25;5061520;28;20036;-68
2023/07/25 21:31:56;;;;;;;4.75;4.28;;;;;;;23.58;54.18;100026.25;5056823;28;20043;-68
2023/07/25 21:34:21;;;;;;;8.30;4.93;;;;;;;23.59;54.39;100025.28;5062541;28;20115;-69
2023/07/25 21:36:50;;;;;;;6.28;4.05;;;;;;;23.64;54.05;100023.06;5063456;28;20111;-68
2023/07/25 21:39:16;;;;;;;5.25;4.28;;;;;;;23.65;53.81;100032.69;5060392;28;20715;-68
2023/07/25 21:41:41;;;;;;;4.88;4.47;;;;;;;23.65;53.93;100033.50;5058696;28;20032;-68
2023/07/25 21:44:07;;;;;;;4.28;3.97;;;;;;;23.69;54.13;100034.06;5057841;28;20081;-69
2023/07/25 21:46:32;;;;;;;5.53;4.18;;;;;;;23.78;54.27;100035.84;5061670;28;20027;-68
2023/07/25 21:48:59;;;;;;;11.25;4.70;;;;;;;23.89;53.96;100033.03;5059276;28;20032;-72
2023/07/25 21:51:24;;;;;;;7.35;4.15;;;;;;;23.93;53.84;100038.84;5055231;28;20032;-73
2023/07/25 21:53:49;;;;;;;5.03;4.10;;;;;;;23.85;53.89;100036.09;5063912;28;20035;-72
2023/07/25 21:56:15;;;;;;;5.07;3.72;;;;;;;23.79;54.29;100033.06;5066639;28;20071;-72
2023/07/25 21:58:40;;;;;;;5.68;3.88;;;;;;;23.78;54.36;100034.03;5058175;28;20020;-72
2023/07/25 22:01:05;;;;;;;7.07;4.05;;;;;;;23.75;54.41;100030.84;5061938;28;20025;-72
2023/07/25 22:03:31;;;;;;;4.90;3.67;;;;;;;23.76;54.38;100035.16;5050432;28;20128;-72
2023/07/25 22:05:57;;;;;;;6.60;4.43;;;;;;;23.76;54.00;100035.97;5057951;28;20071;-72
2023/07/25 22:08:22;;;;;;;5.95;4.05;;;;;;;23.77;53.89;100039.50;5059341;28;20031;-73
2023/07/25 22:10:48;;;;;;;7.85;4.20;;;;;;;23.76;54.24;100037.78;5058112;28;20062;-72
2023/07/25 22:13:13;;;;;;;4.20;3.80;;;;;;;23.75;53.90;100036.13;5051419;28;20034;-73
2023/07/25 22:15:42;;;;;;;5.53;4.20;;;;;;;23.75;54.13;100044.09;5055522;28;20027;-72
2023/07/25 22:18:07;;;;;;;5.53;4.27;;;;;;;23.75;54.01;100044.09;5060229;28;20448;-72
2023/07/25 22:20:33;;;;;;;5.53;4.07;;;;;;;23.75;53.99;100052.88;5060158;28;20287;-72
2023/07/25 22:22:58;;;;;;;4.55;4.15;;;;;;;23.76;53.94;100043.94;5055998;28;20032;-73
2023/07/25 22:25:23;;;;;;;3.83;3.53;;;;;;;23.75;53.81;100044.91;5068949;28;20919;-71
2023/07/25 22:27:53;;;;;;;5.85;4.25;;;;;;;23.75;54.17;100046.72;5059517;28;20024;-72
2023/07/25 22:30:18;;;;;;;4.88;4.05;;;;;;;23.75;53.90;100054.69;5058149;28;20032;-72
2023/07/25 22:32:44;;;;;;;5.05;4.07;;;;;;;23.74;54.06;100060.97;5055865;28;20367;-73
2023/07/25 22:35:09;;;;;;;4.15;3.58;;;;;;;23.73;53.78;100054.84;5054208;28;20039;-71
2023/07/25 22:37:35;;;;;;;4.40;3.70;;;;;;;23.74;53.87;100060.97;5059255;28;20055;-72
2023/07/25 22:40:00;;;;;;;4.20;3.80;;;;;;;23.76;54.01;100064.31;5059952;28;20046;-71
2023/07/25 22:42:25;;;;;;;5.75;4.35;;;;;;;23.76;53.81;100064.31;5055676;28;20031;-72
2023/07/25 22:44:51;;;;;;;5.22;3.97;;;;;;;23.75;54.24;100060.81;5052126;28;20110;-72
2023/07/25 22:47:16;;;;;;;5.07;4.25;;;;;;;23.74;53.65;100060.97;5057874;28;20055;-72
2023/07/25 22:49:41;;;;;;;6.95;3.90;;;;;;;23.74;53.95;100060.97;5059496;28;20119;-72
2023/07/25 22:52:07;;;;;;;4.53;4.13;;;;;;;23.73;54.07;100060.13;5054126;28;20033;-72
2023/07/25 22:54:32;;;;;;;4.35;3.95;;;;;;;23.72;53.70;100063.78;5059001;28;20137;-72
2023/07/25 22:56:58;;;;;;;4.22;3.92;;;;;;;23.74;53.61;100067.09;5061492;28;20032;-71
2023/07/25 22:59:23;;;;;;;5.18;4.00;;;;;;;23.72;53.92;100069.09;5057432;28;20032;-72
2023/07/25 23:01:48;;;;;;;4.32;3.92;;;;;;;23.72;53.87;100070.91;5052045;28;20103;-72
2023/07/25 23:04:14;;;;;;;4.13;3.72;;;;;;;23.72;53.76;100068.25;5049155;28;20845;-73
2023/07/25 23:06:39;;;;;;;4.55;4.15;;;;;;;23.72;54.33;100066.44;5058277;28;20511;-73
2023/07/25 23:09:05;;;;;;;4.90;3.88;;;;;;;23.72;53.74;100068.25;5059489;28;20830;-72
2023/07/25 23:11:30;;;;;;;4.45;3.85;;;;;;;23.72;53.89;100077.03;5056446;28;20043;-71
2023/07/25 23:13:56;;;;;;;4.28;3.40;;;;;;;23.72;53.72;100079.69;5051842;28;20025;-72
2023/07/25 23:16:22;;;;;;;4.30;3.90;;;;;;;23.68;53.84;100082.75;5057377;28;20032;-73
2023/07/25 23:18:47;;;;;;;4.32;4.03;;;;;;;23.69;53.76;100082.59;5060063;28;20035;-72
2023/07/25 23:21:12;;;;;;;4.20;3.90;;;;;;;23.71;53.75;100093.06;5057721;28;20032;-73
2023/07/25 23:23:39;;;;;;;4.65;4.28;;;;;;;23.71;53.66;100087.75;5054457;28;20098;-73
2023/07/25 23:26:04;;;;;;;4.45;4.05;;;;;;;23.72;53.86;100089.44;5054960;28;20020;-71
2023/07/25 23:28:33;;;;;;;4.45;4.05;;;;;;;23.71;53.68;100090.41;5060569;28;20430;-73
2023/07/25 23:30:58;;;;;;;4.55;4.15;;;;;;;23.70;53.78;100096.69;5058015;28;20032;-72
2023/07/25 23:33:23;;;;;;;4.07;3.78;;;;;;;23.69;53.53;100095.84;5052917;28;20980;-72
2023/07/25 23:35:55;;;;;;;4.00;3.65;;;;;;;23.69;53.63;100102.97;5056549;28;20036;-73
2023/07/25 23:38:20;;;;;;;4.22;3.83;;;;;;;23.71;53.69;100106.31;5058667;28;20032;-73
2023/07/25 23:40:46;;;;;;;4.13;3.75;;;;;;;23.68;53.63;100114.56;5059732;28;20054;-71
2023/07/25 23:43:11;;;;;;;4.40;3.83;;;;;;;23.71;53.47;100109.81;5053670;28;20036;-72
2023/07/25 23:45:36;;;;;;;3.90;3.53;;;;;;;23.70;53.33;100110.78;5054493;28;20036;-73
2023/07/25 23:48:02;;;;;;;4.63;3.53;;;;;;;23.70;53.33;100107.28;5060535;28;20028;-73
2023/07/25 23:50:27;;;;;;;3.97;3.58;;;;;;;23.72;53.67;100113.31;5057778;28;20039;-72
2023/07/25 23:52:53;;;;;;;4.72;4.10;;;;;;;23.72;53.64;100106.19;5054318;28;20887;-72
2023/07/25 23:55:18;;;;;;;4.07;3.67;;;;;;;23.75;53.22;100110.34;5055108;28;20517;-72
2023/07/25 23:57:43;;;;;;;3.95;3.65;;;;;;;23.73;53.35;100107.03;5060351;28;20033;-72
